sensor_id;sensor_type;location;lat;lon;timestamp;pressure;altitude;pressure_sealevel;temperature
45393;BMP280;31129;44.810;10.334;2023-08-12T00:00:05;101362.72;;;25.77
45393;BMP280;31129;44.810;10.334;2023-08-12T00:02:36;101354.72;;;25.82
45393;BMP280;31129;44.810;10.334;2023-08-12T00:05:02;101359.75;;;25.75
45393;BMP280;31129;44.810;10.334;2023-08-12T00:07:29;101353.41;;;25.75
45393;BMP280;31129;44.810;10.334;2023-08-12T00:09:54;101350.56;;;25.98
45393;BMP280;31129;44.810;10.334;2023-08-12T00:12:21;101355.47;;;25.82
45393;BMP280;31129;44.810;10.334;2023-08-12T00:14:46;101360.06;;;25.95
45393;BMP280;31129;44.810;10.334;2023-08-12T00:17:12;101361.22;;;25.84
45393;BMP280;31129;44.810;10.334;2023-08-12T00:19:37;101360.28;;;25.89
45393;BMP280;31129;44.810;10.334;2023-08-12T00:22:03;101356.97;;;25.83
45393;BMP280;31129;44.810;10.334;2023-08-12T00:24:29;101353.03;;;25.78
45393;BMP280;31129;44.810;10.334;2023-08-12T00:26:55;101355.81;;;25.78
45393;BMP280;31129;44.810;10.334;2023-08-12T00:29:22;101347.84;;;25.67
45393;BMP280;31129;44.810;10.334;2023-08-12T00:31:47;101357.13;;;25.77
45393;BMP280;31129;44.810;10.334;2023-08-12T00:34:14;101346.53;;;25.68
45393;BMP280;31129;44.810;10.334;2023-08-12T00:36:39;101350.63;;;25.83
45393;BMP280;31129;44.810;10.334;2023-08-12T00:39:05;101347.13;;;25.67
45393;BMP280;31129;44.810;10.334;2023-08-12T00:41:31;101347.50;;;25.56
45393;BMP280;31129;44.810;10.334;2023-08-12T00:43:56;101347.31;;;25.46
45393;BMP280;31129;44.810;10.334;2023-08-12T00:46:22;101345.84;;;25.53
45393;BMP280;31129;44.810;10.334;2023-08-12T00:48:48;101346.38;;;25.44
45393;BMP280;31129;44.810;10.334;2023-08-12T00:51:14;101342.69;;;25.18
45393;BMP280;31129;44.810;10.334;2023-08-12T00:53:40;101338.78;;;25.37
45393;BMP280;31129;44.810;10.334;2023-08-12T00:56:06;101337.63;;;25.32
45393;BMP280;31129;44.810;10.334;2023-08-12T00:58:33;101333.38;;;25.23
45393;BMP280;31129;44.810;10.334;2023-08-12T01:00:59;101341.34;;;25.34
45393;BMP280;31129;44.810;10.334;2023-08-12T01:03:25;101336.72;;;25.29
45393;BMP280;31129;44.810;10.334;2023-08-12T01:05:51;101332.78;;;25.17
45393;BMP280;31129;44.810;10.334;2023-08-12T01:08:16;101332.03;;;25.17
45393;BMP280;31129;44.810;10.334;2023-08-12T01:10:45;101331.69;;;25.20
45393;BMP280;31129;44.810;10.334;2023-08-12T01:15:49;101320.13;;;25.16
45393;BMP280;31129;44.810;10.334;2023-08-12T01:18:17;101320.88;;;25.17
45393;BMP280;31129;44.810;10.334;2023-08-12T01:20:42;101319.00;;;25.27
45393;BMP280;31129;44.810;10.334;2023-08-12T01:25:35;101325.56;;;24.92
45393;BMP280;31129;44.810;10.334;2023-08-12T01:28:01;101331.69;;;24.90
45393;BMP280;31129;44.810;10.334;2023-08-12T01:30:26;101333.75;;;25.12
45393;BMP280;31129;44.810;10.334;2023-08-12T01:32:53;101330.94;;;25.35
45393;BMP280;31129;44.810;10.334;2023-08-12T01:35:21;101331.13;;;25.29
45393;BMP280;31129;44.810;10.334;2023-08-12T01:37:49;101328.69;;;25.41
45393;BMP280;31129;44.810;10.334;2023-08-12T01:40:15;101325.34;;;25.35
45393;BMP280;31129;44.810;10.334;2023-08-12T01:42:42;101331.13;;;25.29
45393;BMP280;31129;44.810;10.334;2023-08-12T01:45:07;101319.94;;;25.07
45393;BMP280;31129;44.810;10.334;2023-08-12T01:47:33;101324.78;;;25.14
45393;BMP280;31129;44.810;10.334;2023-08-12T01:49:58;101322.16;;;25.31
45393;BMP280;31129;44.810;10.334;2023-08-12T01:52:23;101327.41;;;25.27
45393;BMP280;31129;44.810;10.334;2023-08-12T01:54:49;101327.03;;;25.08
45393;BMP280;31129;44.810;10.334;2023-08-12T01:57:15;101327.59;;;24.99
45393;BMP280;31129;44.810;10.334;2023-08-12T01:59:40;101331.84;;;24.84
45393;BMP280;31129;44.810;10.334;2023-08-12T02:02:06;101321.63;;;24.95
45393;BMP280;31129;44.810;10.334;2023-08-12T02:04:32;101323.31;;;24.90
45393;BMP280;31129;44.810;10.334;2023-08-12T02:06:58;101320.13;;;24.78
45393;BMP280;31129;44.810;10.334;2023-08-12T02:09:23;101317.88;;;24.69
45393;BMP280;31129;44.810;10.334;2023-08-12T02:11:49;101323.69;;;25.02
45393;BMP280;31129;44.810;10.334;2023-08-12T02:14:15;101320.84;;;24.86
45393;BMP280;31129;44.810;10.334;2023-08-12T02:16:42;101325.16;;;24.87
45393;BMP280;31129;44.810;10.334;2023-08-12T02:19:07;101327.91;;;24.65
45393;BMP280;31129;44.810;10.334;2023-08-12T02:21:32;101334.25;;;24.65
45393;BMP280;31129;44.810;10.334;2023-08-12T02:23:59;101332.03;;;24.79
45393;BMP280;31129;44.810;10.334;2023-08-12T02:26:24;101328.09;;;24.67
45393;BMP280;31129;44.810;10.334;2023-08-12T02:28:50;101327.56;;;24.76
45393;BMP280;31129;44.810;10.334;2023-08-12T02:31:15;101326.44;;;24.64
45393;BMP280;31129;44.810;10.334;2023-08-12T02:33:41;101325.84;;;24.65
45393;BMP280;31129;44.810;10.334;2023-08-12T02:36:07;101323.03;;;24.58
45393;BMP280;31129;44.810;10.334;2023-08-12T02:38:32;101326.75;;;24.45
45393;BMP280;31129;44.810;10.334;2023-08-12T02:40:58;101319.88;;;24.46
45393;BMP280;31129;44.810;10.334;2023-08-12T02:43:23;101308.72;;;24.46
45393;BMP280;31129;44.810;10.334;2023-08-12T02:45:49;101318.44;;;24.68
45393;BMP280;31129;44.810;10.334;2023-08-12T02:48:14;101321.56;;;24.57
45393;BMP280;31129;44.810;10.334;2023-08-12T02:50:39;101318.16;;;24.35
45393;BMP280;31129;44.810;10.334;2023-08-12T02:53:05;101313.19;;;24.49
45393;BMP280;31129;44.810;10.334;2023-08-12T02:55:31;101312.06;;;24.52
45393;BMP280;31129;44.810;10.334;2023-08-12T02:58:00;101308.34;;;24.50
45393;BMP280;31129;44.810;10.334;2023-08-12T03:00:25;101316.88;;;24.36
45393;BMP280;31129;44.810;10.334;2023-08-12T03:02:51;101310.47;;;24.21
45393;BMP280;31129;44.810;10.334;2023-08-12T03:05:16;101310.75;;;24.46
45393;BMP280;31129;44.810;10.334;2023-08-12T03:07:42;101315.50;;;24.15
45393;BMP280;31129;44.810;10.334;2023-08-12T03:10:07;101307.13;;;24.15
45393;BMP280;31129;44.810;10.334;2023-08-12T03:12:33;101306.13;;;24.05
45393;BMP280;31129;44.810;10.334;2023-08-12T03:14:59;101309.50;;;24.11
45393;BMP280;31129;44.810;10.334;2023-08-12T03:17:26;101304.66;;;24.04
45393;BMP280;31129;44.810;10.334;2023-08-12T03:19:51;101306.13;;;24.05
45393;BMP280;31129;44.810;10.334;2023-08-12T03:22:20;101299.50;;;24.23
45393;BMP280;31129;44.810;10.334;2023-08-12T03:24:46;101314.06;;;24.29
45393;BMP280;31129;44.810;10.334;2023-08-12T03:27:11;101309.19;;;24.22
45393;BMP280;31129;44.810;10.334;2023-08-12T03:29:37;101307.19;;;24.37
45393;BMP280;31129;44.810;10.334;2023-08-12T03:32:02;101307.53;;;24.34
45393;BMP280;31129;44.810;10.334;2023-08-12T03:34:29;101307.13;;;24.22
45393;BMP280;31129;44.810;10.334;2023-08-12T03:36:57;101299.75;;;24.32
45393;BMP280;31129;44.810;10.334;2023-08-12T03:39:23;101311.28;;;24.36
45393;BMP280;31129;44.810;10.334;2023-08-12T03:41:48;101317.59;;;24.29
45393;BMP280;31129;44.810;10.334;2023-08-12T03:44:16;101316.88;;;24.44
45393;BMP280;31129;44.810;10.334;2023-08-12T03:46:41;101317.78;;;24.31
45393;BMP280;31129;44.810;10.334;2023-08-12T03:49:07;101315.84;;;24.11
45393;BMP280;31129;44.810;10.334;2023-08-12T03:51:33;101316.03;;;24.13
45393;BMP280;31129;44.810;10.334;2023-08-12T03:53:58;101307.94;;;23.94
45393;BMP280;31129;44.810;10.334;2023-08-12T03:56:25;101307.19;;;23.86
45393;BMP280;31129;44.810;10.334;2023-08-12T03:58:51;101318.63;;;24.11
45393;BMP280;31129;44.810;10.334;2023-08-12T04:01:16;101304.75;;;23.90
45393;BMP280;31129;44.810;10.334;2023-08-12T04:03:42;101306.13;;;24.05
45393;BMP280;31129;44.810;10.334;2023-08-12T04:06:07;101310.31;;;24.19
45393;BMP280;31129;44.810;10.334;2023-08-12T04:08:33;101311.50;;;24.03
45393;BMP280;31129;44.810;10.334;2023-08-12T04:10:59;101309.13;;;24.07
45393;BMP280;31129;44.810;10.334;2023-08-12T04:13:25;101307.19;;;23.86
45393;BMP280;31129;44.810;10.334;2023-08-12T04:15:50;101305.72;;;23.65
45393;BMP280;31129;44.810;10.334;2023-08-12T04:18:18;101307.72;;;23.57
45393;BMP280;31129;44.810;10.334;2023-08-12T04:20:44;101301.88;;;23.68
45393;BMP280;31129;44.810;10.334;2023-08-12T04:23:11;101302.84;;;23.78
45393;BMP280;31129;44.810;10.334;2023-08-12T04:25:36;101301.59;;;23.86
45393;BMP280;31129;44.810;10.334;2023-08-12T04:28:01;101301.16;;;23.75
45393;BMP280;31129;44.810;10.334;2023-08-12T04:30:29;101303.88;;;23.67
45393;BMP280;31129;44.810;10.334;2023-08-12T04:32:55;101294.16;;;23.53
45393;BMP280;31129;44.810;10.334;2023-08-12T04:35:22;101293.63;;;23.62
45393;BMP280;31129;44.810;10.334;2023-08-12T04:37:48;101295.00;;;23.76
45393;BMP280;31129;44.810;10.334;2023-08-12T04:40:14;101298.06;;;23.86
45393;BMP280;31129;44.810;10.334;2023-08-12T04:42:40;101302.72;;;23.91
45393;BMP280;31129;44.810;10.334;2023-08-12T04:45:07;101300.91;;;24.09
45393;BMP280;31129;44.810;10.334;2023-08-12T04:47:33;101304.91;;;24.21
45393;BMP280;31129;44.810;10.334;2023-08-12T04:49:59;101303.13;;;24.54
45393;BMP280;31129;44.810;10.334;2023-08-12T04:52:25;101303.72;;;24.67
45393;BMP280;31129;44.810;10.334;2023-08-12T04:54:54;101309.88;;;24.81
45393;BMP280;31129;44.810;10.334;2023-08-12T04:57:21;101300.59;;;24.94
45393;BMP280;31129;44.810;10.334;2023-08-12T04:59:46;101307.66;;;25.02
45393;BMP280;31129;44.810;10.334;2023-08-12T05:02:13;101304.69;;;25.15
45393;BMP280;31129;44.810;10.334;2023-08-12T05:04:39;101318.47;;;25.28
45393;BMP280;31129;44.810;10.334;2023-08-12T05:07:04;101323.66;;;25.32
45393;BMP280;31129;44.810;10.334;2023-08-12T05:09:30;101311.19;;;25.03
45393;BMP280;31129;44.810;10.334;2023-08-12T05:11:56;101314.38;;;25.22
45393;BMP280;31129;44.810;10.334;2023-08-12T05:14:21;101317.53;;;25.18
45393;BMP280;31129;44.810;10.334;2023-08-12T05:16:47;101314.00;;;25.10
45393;BMP280;31129;44.810;10.334;2023-08-12T05:19:13;101314.75;;;25.26
45393;BMP280;31129;44.810;10.334;2023-08-12T05:21:38;101309.53;;;25.22
45393;BMP280;31129;44.810;10.334;2023-08-12T05:24:03;101309.88;;;25.19
45393;BMP280;31129;44.810;10.334;2023-08-12T05:26:29;101312.88;;;25.36
45393;BMP280;31129;44.810;10.334;2023-08-12T05:28:55;101315.88;;;25.23
45393;BMP280;31129;44.810;10.334;2023-08-12T05:31:20;101318.47;;;25.28
45393;BMP280;31129;44.810;10.334;2023-08-12T05:33:46;101321.25;;;25.36
45393;BMP280;31129;44.810;10.334;2023-08-12T05:36:11;101332.97;;;25.50
45393;BMP280;31129;44.810;10.334;2023-08-12T05:38:37;101331.31;;;25.47
45393;BMP280;31129;44.810;10.334;2023-08-12T05:41:02;101331.31;;;25.24
45393;BMP280;31129;44.810;10.334;2023-08-12T05:43:29;101328.31;;;25.45
45393;BMP280;31129;44.810;10.334;2023-08-12T05:45:54;101333.50;;;25.48
45393;BMP280;31129;44.810;10.334;2023-08-12T05:48:20;101331.78;;;25.75
45393;BMP280;31129;44.810;10.334;2023-08-12T05:50:45;101338.88;;;25.76
45393;BMP280;31129;44.810;10.334;2023-08-12T05:53:11;101337.16;;;25.89
45393;BMP280;31129;44.810;10.334;2023-08-12T05:55:36;101338.28;;;25.78
45393;BMP280;31129;44.810;10.334;2023-08-12T05:58:01;101345.78;;;25.75
45393;BMP280;31129;44.810;10.334;2023-08-12T06:00:27;101351.19;;;25.81
45393;BMP280;31129;44.810;10.334;2023-08-12T06:02:52;101350.84;;;25.62
45393;BMP280;31129;44.810;10.334;2023-08-12T06:05:18;101353.50;;;25.29
45393;BMP280;31129;44.810;10.334;2023-08-12T06:07:43;101351.03;;;24.88
45393;BMP280;31129;44.810;10.334;2023-08-12T06:10:09;101354.03;;;24.90
45393;BMP280;31129;44.810;10.334;2023-08-12T06:12:34;101355.53;;;24.91
45393;BMP280;31129;44.810;10.334;2023-08-12T06:14:59;101356.47;;;25.39
45393;BMP280;31129;44.810;10.334;2023-08-12T06:17:26;101348.09;;;25.39
45393;BMP280;31129;44.810;10.334;2023-08-12T06:19:51;101358.72;;;25.25
45393;BMP280;31129;44.810;10.334;2023-08-12T06:22:17;101361.50;;;25.25
45393;BMP280;31129;44.810;10.334;2023-08-12T06:24:42;101355.72;;;25.39
45393;BMP280;31129;44.810;10.334;2023-08-12T06:27:08;101361.16;;;25.37
45393;BMP280;31129;44.810;10.334;2023-08-12T06:29:33;101361.09;;;24.83
45393;BMP280;31129;44.810;10.334;2023-08-12T06:31:59;101348.06;;;25.01
45393;BMP280;31129;44.810;10.334;2023-08-12T06:34:24;101347.34;;;25.39
45393;BMP280;31129;44.810;10.334;2023-08-12T06:36:49;101351.03;;;25.49
45393;BMP280;31129;44.810;10.334;2023-08-12T06:39:15;101346.53;;;25.68
45393;BMP280;31129;44.810;10.334;2023-08-12T06:41:40;101341.16;;;25.63
45393;BMP280;31129;44.810;10.334;2023-08-12T06:44:06;101335.97;;;25.29
45393;BMP280;31129;44.810;10.334;2023-08-12T06:46:31;101339.69;;;25.31
45393;BMP280;31129;44.810;10.334;2023-08-12T06:48:58;101337.44;;;25.30
45393;BMP280;31129;44.810;10.334;2023-08-12T06:51:23;101342.38;;;25.92
45393;BMP280;31129;44.810;10.334;2023-08-12T06:53:48;101342.69;;;26.11
45393;BMP280;31129;44.810;10.334;2023-08-12T06:56:14;101334.22;;;26.27
45393;BMP280;31129;44.810;10.334;2023-08-12T06:58:39;101335.00;;;26.19
45393;BMP280;31129;44.810;10.334;2023-08-12T07:01:05;101328.63;;;26.27
45393;BMP280;31129;44.810;10.334;2023-08-12T07:03:30;101341.25;;;26.35
45393;BMP280;31129;44.810;10.334;2023-08-12T07:05:56;101342.75;;;26.36
45393;BMP280;31129;44.810;10.334;2023-08-12T07:08:21;101345.84;;;26.48
45393;BMP280;31129;44.810;10.334;2023-08-12T07:10:47;101336.88;;;26.49
45393;BMP280;31129;44.810;10.334;2023-08-12T07:13:12;101334.94;;;26.59
45393;BMP280;31129;44.810;10.334;2023-08-12T07:15:37;101345.06;;;26.55
45393;BMP280;31129;44.810;10.334;2023-08-12T07:18:03;101340.00;;;26.61
45393;BMP280;31129;44.810;10.334;2023-08-12T07:20:28;101349.09;;;25.89
45393;BMP280;31129;44.810;10.334;2023-08-12T07:22:54;101349.31;;;25.84
45393;BMP280;31129;44.810;10.334;2023-08-12T07:25:19;101350.31;;;26.11
45393;BMP280;31129;44.810;10.334;2023-08-12T07:27:45;101351.78;;;26.19
45393;BMP280;31129;44.810;10.334;2023-08-12T07:30:10;101351.03;;;26.27
45393;BMP280;31129;44.810;10.334;2023-08-12T07:32:36;101349.50;;;26.25
45393;BMP280;31129;44.810;10.334;2023-08-12T07:35:01;101349.69;;;26.28
45393;BMP280;31129;44.810;10.334;2023-08-12T07:37:28;101344.56;;;26.01
45393;BMP280;31129;44.810;10.334;2023-08-12T07:39:53;101342.78;;;26.29
45393;BMP280;31129;44.810;10.334;2023-08-12T07:42:19;101342.19;;;26.62
45393;BMP280;31129;44.810;10.334;2023-08-12T07:44:45;101341.13;;;26.83
45393;BMP280;31129;44.810;10.334;2023-08-12T07:47:10;101348.16;;;26.66
45393;BMP280;31129;44.810;10.334;2023-08-12T07:49:36;101347.88;;;26.80
45393;BMP280;31129;44.810;10.334;2023-08-12T07:52:01;101351.78;;;27.01
45393;BMP280;31129;44.810;10.334;2023-08-12T07:54:27;101349.44;;;27.15
45393;BMP280;31129;44.810;10.334;2023-08-12T07:56:52;101339.91;;;27.18
45393;BMP280;31129;44.810;10.334;2023-08-12T07:59:19;101346.81;;;27.17
45393;BMP280;31129;44.810;10.334;2023-08-12T08:01:44;101351.41;;;27.05
45393;BMP280;31129;44.810;10.334;2023-08-12T08:04:10;101346.09;;;26.92
45393;BMP280;31129;44.810;10.334;2023-08-12T08:06:35;101341.94;;;27.00
45393;BMP280;31129;44.810;10.334;2023-08-12T08:09:00;101339.94;;;26.93
45393;BMP280;31129;44.810;10.334;2023-08-12T08:11:29;101337.25;;;27.03
45393;BMP280;31129;44.810;10.334;2023-08-12T08:13:55;101348.38;;;27.10
45393;BMP280;31129;44.810;10.334;2023-08-12T08:16:20;101339.16;;;27.17
45393;BMP280;31129;44.810;10.334;2023-08-12T08:18:45;101341.78;;;27.33
45393;BMP280;31129;44.810;10.334;2023-08-12T08:21:11;101342.06;;;27.27
45393;BMP280;31129;44.810;10.334;2023-08-12T08:23:36;101343.53;;;27.28
45393;BMP280;31129;44.810;10.334;2023-08-12T08:26:01;101338.69;;;27.29
45393;BMP280;31129;44.810;10.334;2023-08-12T08:28:27;101347.19;;;27.38
45393;BMP280;31129;44.810;10.334;2023-08-12T08:30:53;101336.06;;;27.48
45393;BMP280;31129;44.810;10.334;2023-08-12T08:33:18;101344.72;;;27.59
45393;BMP280;31129;44.810;10.334;2023-08-12T08:35:44;101344.47;;;27.65
45393;BMP280;31129;44.810;10.334;2023-08-12T08:38:09;101341.50;;;27.63
45393;BMP280;31129;44.810;10.334;2023-08-12T08:40:35;101342.44;;;27.92
45393;BMP280;31129;44.810;10.334;2023-08-12T08:43:02;101343.28;;;28.02
45393;BMP280;31129;44.810;10.334;2023-08-12T08:45:28;101348.66;;;27.91
45393;BMP280;31129;44.810;10.334;2023-08-12T08:47:55;101341.91;;;27.94
45393;BMP280;31129;44.810;10.334;2023-08-12T08:50:21;101331.16;;;27.83
45393;BMP280;31129;44.810;10.334;2023-08-12T08:52:47;101338.69;;;27.97
45393;BMP280;31129;44.810;10.334;2023-08-12T08:55:12;101338.72;;;28.07
45393;BMP280;31129;44.810;10.334;2023-08-12T08:57:39;101338.63;;;28.14
45393;BMP280;31129;44.810;10.334;2023-08-12T09:00:06;101342.53;;;28.29
45393;BMP280;31129;44.810;10.334;2023-08-12T09:02:36;101329.44;;;28.41
45393;BMP280;31129;44.810;10.334;2023-08-12T09:05:02;101332.50;;;28.35
45393;BMP280;31129;44.810;10.334;2023-08-12T09:07:28;101334.56;;;28.35
45393;BMP280;31129;44.810;10.334;2023-08-12T09:09:54;101338.66;;;28.51
45393;BMP280;31129;44.810;10.334;2023-08-12T09:12:21;101345.63;;;28.59
45393;BMP280;31129;44.810;10.334;2023-08-12T09:14:47;101341.66;;;28.62
45393;BMP280;31129;44.810;10.334;2023-08-12T09:17:14;101331.94;;;28.73
45393;BMP280;31129;44.810;10.334;2023-08-12T09:19:39;101336.03;;;28.62
45393;BMP280;31129;44.810;10.334;2023-08-12T09:22:05;101336.84;;;28.82
45393;BMP280;31129;44.810;10.334;2023-08-12T09:24:30;101341.03;;;28.91
45393;BMP280;31129;44.810;10.334;2023-08-12T09:26:56;101340.41;;;28.92
45393;BMP280;31129;44.810;10.334;2023-08-12T09:29:31;101332.69;;;28.83
45393;BMP280;31129;44.810;10.334;2023-08-12T09:32:09;101330.34;;;28.99
45393;BMP280;31129;44.810;10.334;2023-08-12T09:34:34;101339.66;;;28.92
45393;BMP280;31129;44.810;10.334;2023-08-12T09:37:00;101338.22;;;29.00
45393;BMP280;31129;44.810;10.334;2023-08-12T09:39:25;101335.97;;;28.99
45393;BMP280;31129;44.810;10.334;2023-08-12T09:41:51;101324.78;;;29.08
45393;BMP280;31129;44.810;10.334;2023-08-12T09:44:16;101321.84;;;29.35
45393;BMP280;31129;44.810;10.334;2023-08-12T09:46:42;101315.31;;;29.23
45393;BMP280;31129;44.810;10.334;2023-08-12T09:49:07;101322.13;;;29.49
45393;BMP280;31129;44.810;10.334;2023-08-12T09:51:36;101315.03;;;29.38
45393;BMP280;31129;44.810;10.334;2023-08-12T09:54:02;101316.31;;;29.28
45393;BMP280;31129;44.810;10.334;2023-08-12T09:56:27;101316.78;;;29.43
45393;BMP280;31129;44.810;10.334;2023-08-12T09:58:57;101321.69;;;29.33
45393;BMP280;31129;44.810;10.334;2023-08-12T10:01:22;101314.84;;;29.55
45393;BMP280;31129;44.810;10.334;2023-08-12T10:03:49;101313.19;;;29.72
45393;BMP280;31129;44.810;10.334;2023-08-12T10:06:15;101313.94;;;29.82
45393;BMP280;31129;44.810;10.334;2023-08-12T10:08:41;101308.91;;;29.80
45393;BMP280;31129;44.810;10.334;2023-08-12T10:11:06;101302.94;;;29.86
45393;BMP280;31129;44.810;10.334;2023-08-12T10:13:33;101304.69;;;29.91
45393;BMP280;31129;44.810;10.334;2023-08-12T10:15:59;101297.59;;;29.90
45393;BMP280;31129;44.810;10.334;2023-08-12T10:18:26;101298.06;;;29.96
45393;BMP280;31129;44.810;10.334;2023-08-12T10:20:53;101288.66;;;30.03
45393;BMP280;31129;44.810;10.334;2023-08-12T10:23:20;101288.91;;;30.17
45393;BMP280;31129;44.810;10.334;2023-08-12T10:25:46;101285.59;;;30.30
45393;BMP280;31129;44.810;10.334;2023-08-12T10:28:12;101279.63;;;30.04
45393;BMP280;31129;44.810;10.334;2023-08-12T10:30:39;101281.69;;;30.14
45393;BMP280;31129;44.810;10.334;2023-08-12T10:33:05;101276.81;;;30.04
45393;BMP280;31129;44.810;10.334;2023-08-12T10:35:41;101270.13;;;30.00
45393;BMP280;31129;44.810;10.334;2023-08-12T10:38:06;101265.66;;;30.06
45393;BMP280;31129;44.810;10.334;2023-08-12T10:40:32;101270.63;;;29.96
45393;BMP280;31129;44.810;10.334;2023-08-12T10:42:57;101269.41;;;29.99
45393;BMP280;31129;44.810;10.334;2023-08-12T10:45:22;101263.69;;;30.19
45393;BMP280;31129;44.810;10.334;2023-08-12T10:47:49;101252.13;;;30.24
45393;BMP280;31129;44.810;10.334;2023-08-12T10:50:21;101254.63;;;30.20
45393;BMP280;31129;44.810;10.334;2023-08-12T10:52:47;101253.22;;;30.09
45393;BMP280;31129;44.810;10.334;2023-08-12T10:55:19;101247.34;;;29.96
45393;BMP280;31129;44.810;10.334;2023-08-12T10:57:46;101245.59;;;30.22
45393;BMP280;31129;44.810;10.334;2023-08-12T11:00:19;101242.69;;;30.41
45393;BMP280;31129;44.810;10.334;2023-08-12T11:02:51;101239.53;;;30.46
45393;BMP280;31129;44.810;10.334;2023-08-12T11:05:17;101245.38;;;30.60
45393;BMP280;31129;44.810;10.334;2023-08-12T11:07:47;101242.63;;;30.72
45393;BMP280;31129;44.810;10.334;2023-08-12T11:12:40;101234.78;;;30.70
45393;BMP280;31129;44.810;10.334;2023-08-12T11:15:06;101240.63;;;30.84
45393;BMP280;31129;44.810;10.334;2023-08-12T11:17:36;101237.91;;;30.64
45393;BMP280;31129;44.810;10.334;2023-08-12T11:20:03;101232.41;;;30.88
45393;BMP280;31129;44.810;10.334;2023-08-12T11:22:30;101222.25;;;30.73
45393;BMP280;31129;44.810;10.334;2023-08-12T11:24:55;101226.75;;;30.88
45393;BMP280;31129;44.810;10.334;2023-08-12T11:27:21;101226.34;;;31.03
45393;BMP280;31129;44.810;10.334;2023-08-12T11:29:48;101224.00;;;30.99
45393;BMP280;31129;44.810;10.334;2023-08-12T11:32:14;101217.81;;;30.91
45393;BMP280;31129;44.810;10.334;2023-08-12T11:34:40;101210.94;;;30.83
45393;BMP280;31129;44.810;10.334;2023-08-12T11:37:05;101211.56;;;30.93
45393;BMP280;31129;44.810;10.334;2023-08-12T11:39:31;101214.94;;;31.12
45393;BMP280;31129;44.810;10.334;2023-08-12T11:41:57;101205.38;;;31.18
45393;BMP280;31129;44.810;10.334;2023-08-12T11:44:23;101202.00;;;31.31
45393;BMP280;31129;44.810;10.334;2023-08-12T11:46:49;101201.13;;;31.40
45393;BMP280;31129;44.810;10.334;2023-08-12T11:49:14;101205.22;;;31.48
45393;BMP280;31129;44.810;10.334;2023-08-12T11:51:40;101194.66;;;31.49
45393;BMP280;31129;44.810;10.334;2023-08-12T11:54:06;101185.78;;;31.43
45393;BMP280;31129;44.810;10.334;2023-08-12T11:56:31;101179.53;;;31.33
45393;BMP280;31129;44.810;10.334;2023-08-12T11:58:57;101188.13;;;31.35
45393;BMP280;31129;44.810;10.334;2023-08-12T12:01:22;101184.19;;;31.40
45393;BMP280;31129;44.810;10.334;2023-08-12T12:03:51;101181.41;;;31.63
45393;BMP280;31129;44.810;10.334;2023-08-12T12:06:17;101181.91;;;31.71
45393;BMP280;31129;44.810;10.334;2023-08-12T12:08:44;101182.75;;;31.85
45393;BMP280;31129;44.810;10.334;2023-08-12T12:11:09;101180.16;;;32.01
45393;BMP280;31129;44.810;10.334;2023-08-12T12:13:35;101177.94;;;32.11
45393;BMP280;31129;44.810;10.334;2023-08-12T12:16:00;101171.44;;;32.08
45393;BMP280;31129;44.810;10.334;2023-08-12T12:18:26;101170.50;;;32.29
45393;BMP280;31129;44.810;10.334;2023-08-12T12:20:58;101164.47;;;32.35
45393;BMP280;31129;44.810;10.334;2023-08-12T12:23:30;101165.69;;;32.32
45393;BMP280;31129;44.810;10.334;2023-08-12T12:25:56;101159.19;;;32.66
45393;BMP280;31129;44.810;10.334;2023-08-12T12:28:22;101161.66;;;32.85
45393;BMP280;31129;44.810;10.334;2023-08-12T12:30:47;101154.84;;;32.51
45393;BMP280;31129;44.810;10.334;2023-08-12T12:33:13;101158.44;;;32.65
45393;BMP280;31129;44.810;10.334;2023-08-12T12:35:38;101160.19;;;32.84
45393;BMP280;31129;44.810;10.334;2023-08-12T12:38:03;101152.13;;;32.92
45393;BMP280;31129;44.810;10.334;2023-08-12T12:40:29;101155.16;;;32.83
45393;BMP280;31129;44.810;10.334;2023-08-12T12:42:54;101151.81;;;32.86
45393;BMP280;31129;44.810;10.334;2023-08-12T12:45:20;101145.69;;;33.03
45393;BMP280;31129;44.810;10.334;2023-08-12T12:47:45;101150.41;;;33.12
45393;BMP280;31129;44.810;10.334;2023-08-12T12:50:10;101146.97;;;33.14
45393;BMP280;31129;44.810;10.334;2023-08-12T12:52:36;101148.31;;;33.13
45393;BMP280;31129;44.810;10.334;2023-08-12T12:55:01;101141.66;;;33.47
45393;BMP280;31129;44.810;10.334;2023-08-12T12:57:29;101138.91;;;33.63
45393;BMP280;31129;44.810;10.334;2023-08-12T12:59:54;101144.88;;;33.83
45393;BMP280;31129;44.810;10.334;2023-08-12T13:02:20;101150.31;;;33.92
45393;BMP280;31129;44.810;10.334;2023-08-12T13:04:45;101146.19;;;34.09
45393;BMP280;31129;44.810;10.334;2023-08-12T13:07:11;101145.69;;;33.99
45393;BMP280;31129;44.810;10.334;2023-08-12T13:09:36;101142.69;;;34.24
45393;BMP280;31129;44.810;10.334;2023-08-12T13:12:02;101138.56;;;34.27
45393;BMP280;31129;44.810;10.334;2023-08-12T13:14:27;101132.56;;;34.05
45393;BMP280;31129;44.810;10.334;2023-08-12T13:16:54;101128.25;;;34.04
45393;BMP280;31129;44.810;10.334;2023-08-12T13:19:19;101130.03;;;34.11
45393;BMP280;31129;44.810;10.334;2023-08-12T13:21:45;101122.22;;;34.12
45393;BMP280;31129;44.810;10.334;2023-08-12T13:24:10;101118.84;;;34.15
45393;BMP280;31129;44.810;10.334;2023-08-12T13:26:35;101118.22;;;34.62
45393;BMP280;31129;44.810;10.334;2023-08-12T13:29:01;101116.25;;;34.80
45393;BMP280;31129;44.810;10.334;2023-08-12T13:31:26;101110.59;;;34.80
45393;BMP280;31129;44.810;10.334;2023-08-12T13:33:52;101110.75;;;35.00
45393;BMP280;31129;44.810;10.334;2023-08-12T13:36:17;101120.75;;;35.01
45393;BMP280;31129;44.810;10.334;2023-08-12T13:38:43;101106.28;;;34.95
45393;BMP280;31129;44.810;10.334;2023-08-12T13:41:08;101104.81;;;35.09
45393;BMP280;31129;44.810;10.334;2023-08-12T13:43:33;101100.03;;;34.82